createdAt,value
2019-01-05T17:25:50.422Z,93883.81
2019-01-05T17:28:20.483Z,93886.53
2019-01-05T17:30:56.320Z,93889.67
2019-01-05T17:33:26.381Z,93894.90
2019-01-05T17:36:02.324Z,93894.13
2019-01-05T17:38:44.168Z,93890.21
2019-01-05T17:41:29.145Z,93887.55
2019-01-05T17:44:05.078Z,93881.05
2019-01-05T17:46:35.173Z,93871.88
2019-01-05T17:49:05.235Z,93871.81
2019-01-05T17:51:35.322Z,93869.34
2019-01-05T17:54:08.439Z,93868.34
2019-01-05T17:56:41.455Z,93867.66
2019-01-05T17:59:20.279Z,93869.61
2019-01-05T18:01:50.381Z,93870.19
2019-01-05T18:04:38.698Z,93872.13
2019-01-05T18:07:14.692Z,93870.86
2019-01-05T18:09:59.672Z,93863.05
2019-01-05T18:12:32.484Z,93859.95
2019-01-05T18:15:05.303Z,93863.85
2019-01-05T18:17:38.086Z,93864.66
2019-01-05T18:20:24.273Z,93864.66
2019-01-05T18:23:10.260Z,93866.23
2019-01-05T18:25:40.363Z,93864.27
2019-01-05T18:28:10.426Z,93875.69
2019-01-05T18:30:56.492Z,93867.09
2019-01-05T18:33:26.540Z,93869.23
2019-01-05T18:36:05.749Z,93862.12
2019-01-05T18:38:38.498Z,93868.00
2019-01-05T18:41:11.332Z,93859.33
2019-01-05T18:43:59.013Z,93868.73
2019-01-05T18:46:29.103Z,93860.13
2019-01-05T18:49:07.792Z,93869.30
2019-01-05T18:51:37.889Z,93862.22
2019-01-05T18:54:19.469Z,93863.08
2019-01-05T18:57:01.503Z,93860.20
2019-01-05T18:59:34.286Z,93861.25
2019-01-05T19:02:20.807Z,93855.75
2019-01-05T19:05:06.083Z,93855.75
2019-01-05T19:07:48.203Z,93857.02
2019-01-05T19:10:34.145Z,93851.80
2019-01-05T19:13:07.237Z,93855.45
2019-01-05T19:15:40.185Z,93855.87
2019-01-05T19:18:19.353Z,93852.31
2019-01-05T19:20:55.376Z,93854.47
2019-01-05T19:23:34.329Z,93849.50
2019-01-05T19:26:13.224Z,93858.66
2019-01-05T19:28:59.203Z,93851.72
2019-01-05T19:31:29.291Z,93848.62
2019-01-05T19:34:11.410Z,93848.91
2019-01-05T19:36:44.019Z,93840.92
2019-01-05T19:39:20.087Z,93842.20
2019-01-05T19:42:08.810Z,93834.67
2019-01-05T19:44:38.908Z,93835.95
2019-01-05T19:47:11.473Z,93821.36
2019-01-05T19:49:44.289Z,93826.06
2019-01-05T19:52:25.988Z,93828.94
2019-01-05T19:55:08.381Z,93831.52
2019-01-05T19:57:47.408Z,93833.63
2019-01-05T20:00:17.517Z,93840.13
2019-01-05T20:03:03.860Z,93837.02
2019-01-05T20:05:43.126Z,93835.44
2019-01-05T20:08:28.337Z,93832.75
2019-01-05T20:11:04.031Z,93830.92
2019-01-05T20:13:50.293Z,93822.59
2019-01-05T20:16:27.738Z,93822.30
2019-01-05T20:19:00.494Z,93823.83
2019-01-05T20:21:30.559Z,93812.74
2019-01-05T20:24:09.530Z,93813.78
2019-01-05T20:26:51.521Z,93817.95
2019-01-05T20:29:30.622Z,93810.90
2019-01-05T20:32:16.851Z,93814.83
2019-01-05T20:34:55.109Z,93796.84
2019-01-05T20:37:25.171Z,93800.50
2019-01-05T20:39:55.252Z,93795.98
2019-01-05T20:42:43.511Z,93786.67
2019-01-05T20:45:16.383Z,93780.88
2019-01-05T20:47:49.536Z,93786.05
2019-01-05T20:50:19.600Z,93769.95
2019-01-05T20:53:07.551Z,93772.80
2019-01-05T20:55:53.723Z,93773.37
2019-01-05T20:58:40.488Z,93765.30
2019-01-05T21:01:28.629Z,93758.24
2019-01-05T21:04:04.706Z,93756.19
2019-01-05T21:06:43.590Z,93764.00
2019-01-05T21:09:13.688Z,93757.91
2019-01-05T21:11:43.755Z,93757.91
2019-01-05T21:14:22.899Z,93747.40
2019-01-05T21:16:52.959Z,93751.48
2019-01-05T21:19:26.027Z,93750.73
2019-01-05T21:21:58.873Z,93749.98
2019-01-05T21:24:35.037Z,93747.37
2019-01-05T21:27:14.251Z,93747.55
2019-01-05T21:30:00.350Z,93743.09
2019-01-05T21:32:33.147Z,93740.01
2019-01-05T21:35:05.926Z,93739.96
2019-01-05T21:37:52.238Z,93741.31
2019-01-05T21:40:38.627Z,93737.38
2019-01-05T21:43:20.543Z,93720.69
2019-01-05T21:45:51.845Z,93730.73
2019-01-05T21:48:21.953Z,93725.88
2019-01-05T21:51:00.863Z,93726.97
2019-01-05T21:53:45.864Z,93726.38
2019-01-05T21:56:22.303Z,93719.14
2019-01-05T21:58:52.356Z,93719.83
2019-01-05T22:01:31.276Z,93715.03
2019-01-05T22:04:07.118Z,93718.66
2019-01-05T22:06:53.121Z,93711.08
2019-01-05T22:09:28.918Z,93705.05
2019-01-05T22:12:14.139Z,93710.52
2019-01-05T22:15:00.242Z,93700.66
2019-01-05T22:17:46.594Z,93700.80
2019-01-05T22:20:19.146Z,93694.92
2019-01-05T22:23:05.457Z,93682.95
2019-01-05T22:25:51.502Z,93684.52
2019-01-05T22:28:36.719Z,93673.53
2019-01-05T22:31:22.598Z,93671.48
2019-01-05T22:34:08.717Z,93668.68
2019-01-05T22:36:47.973Z,93668.59
2019-01-05T22:39:34.315Z,93665.08
2019-01-05T22:42:04.369Z,93670.45
2019-01-05T22:44:34.426Z,93659.95
2019-01-05T22:47:20.324Z,93664.66
2019-01-05T22:49:50.323Z,93662.57
2019-01-05T22:52:26.418Z,93661.06
2019-01-05T22:55:12.404Z,93660.75
2019-01-05T22:57:50.996Z,93659.41
2019-01-05T23:00:37.887Z,93655.00
2019-01-05T23:03:24.803Z,93654.27
2019-01-05T23:06:10.715Z,93658.13
2019-01-05T23:08:57.085Z,93652.47
2019-01-05T23:11:27.141Z,93655.05
2019-01-05T23:14:15.285Z,93647.69
2019-01-05T23:16:48.171Z,93637.36
2019-01-05T23:19:18.254Z,93648.55
2019-01-05T23:21:48.288Z,93644.83
2019-01-05T23:24:30.165Z,93643.63
2019-01-05T23:27:16.071Z,93633.97
2019-01-05T23:29:48.933Z,93639.20
2019-01-05T23:32:18.850Z,93646.23
2019-01-05T23:34:48.956Z,93637.03
2019-01-05T23:37:18.948Z,93630.28
2019-01-05T23:40:01.011Z,93626.35
2019-01-05T23:42:30.927Z,93633.91
2019-01-05T23:45:12.759Z,93631.59
2019-01-05T23:47:58.999Z,93627.94
2019-01-05T23:50:41.071Z,93625.50
2019-01-05T23:53:16.560Z,93627.37
2019-01-05T23:55:55.196Z,93627.63
2019-01-05T23:58:43.438Z,93618.81
